createdAt,value
2022-08-12T00:02:03.737Z,88.70
2022-08-12T00:05:19.119Z,88.97
2022-08-12T00:08:10.850Z,89.11
2022-08-12T00:11:09.831Z,89.17
2022-08-12T00:14:04.670Z,89.28
2022-08-12T00:16:57.693Z,89.02
2022-08-12T00:19:47.495Z,88.72
2022-08-12T00:22:39.799Z,88.70
2022-08-12T00:26:00.477Z,88.87
2022-08-12T00:28:39.906Z,88.69
2022-08-12T00:31:31.580Z,88.96
2022-08-12T00:34:21.257Z,88.76
2022-08-12T00:37:15.435Z,88.56
2022-08-12T00:40:10.879Z,88.03
2022-08-12T00:42:45.433Z,88.16
2022-08-12T00:45:21.673Z,88.16
2022-08-12T00:47:55.019Z,87.91
2022-08-12T00:50:29.746Z,87.85
2022-08-12T00:53:03.720Z,87.90
2022-08-12T00:55:39.647Z,87.92
2022-08-12T00:58:12.324Z,87.76
2022-08-12T01:00:51.520Z,87.93
2022-08-12T01:03:26.793Z,87.86
2022-08-12T01:06:25.200Z,87.80
2022-08-12T01:09:24.887Z,87.89
2022-08-12T01:11:57.533Z,87.85
2022-08-12T01:14:32.118Z,87.85
2022-08-12T01:17:07.626Z,88.25
2022-08-12T01:19:39.827Z,88.48
2022-08-12T01:22:29.814Z,88.63
2022-08-12T01:25:10.071Z,88.71
2022-08-12T01:27:54.891Z,88.76
2022-08-12T01:30:31.408Z,88.66
2022-08-12T01:33:14.666Z,88.71
2022-08-12T01:36:08.196Z,88.61
2022-08-12T01:38:43.991Z,88.36
2022-08-12T01:41:20.771Z,88.26
2022-08-12T01:43:55.707Z,88.31
2022-08-12T01:47:03.890Z,88.28
2022-08-12T01:50:04.593Z,87.94
2022-08-12T01:52:59.345Z,87.89
2022-08-12T01:55:40.090Z,88.15
2022-08-12T01:58:27.309Z,88.56
2022-08-12T02:01:04.881Z,88.94
2022-08-12T02:04:13.738Z,88.80
2022-08-12T02:07:16.053Z,88.56
2022-08-12T02:10:49.251Z,88.43
2022-08-12T02:13:50.051Z,88.26
2022-08-12T02:16:38.218Z,88.12
2022-08-12T02:19:24.447Z,88.47
2022-08-12T02:22:12.669Z,88.57
2022-08-12T02:24:50.952Z,88.73
2022-08-12T02:27:28.018Z,88.41
2022-08-12T02:29:59.956Z,88.15
2022-08-12T02:32:42.008Z,88.38
2022-08-12T02:35:21.149Z,88.81
2022-08-12T02:37:55.828Z,88.97
2022-08-12T02:40:30.663Z,89.00
2022-08-12T02:43:13.447Z,88.81
2022-08-12T02:45:54.068Z,88.22
2022-08-12T02:48:30.922Z,87.93
2022-08-12T02:51:09.577Z,87.36
2022-08-12T02:53:42.627Z,87.17
2022-08-12T02:56:15.102Z,87.08
2022-08-12T02:58:59.144Z,87.35
2022-08-12T03:01:35.814Z,87.84
2022-08-12T03:04:27.365Z,88.17
2022-08-12T03:07:14.928Z,88.38
2022-08-12T03:10:04.480Z,88.65
2022-08-12T03:12:49.833Z,89.04
2022-08-12T03:15:35.821Z,89.21
2022-08-12T03:18:25.500Z,89.25
2022-08-12T03:21:14.231Z,89.31
2022-08-12T03:24:04.109Z,89.29
2022-08-12T03:26:37.988Z,89.08
2022-08-12T03:29:14.573Z,89.50
2022-08-12T03:32:08.407Z,89.50
2022-08-12T03:35:07.519Z,89.92
2022-08-12T03:37:42.774Z,89.93
2022-08-12T03:40:35.963Z,89.68
2022-08-12T03:43:28.608Z,89.62
2022-08-12T03:46:27.581Z,89.05
2022-08-12T03:49:19.839Z,88.90
2022-08-12T03:52:12.656Z,88.73
2022-08-12T03:55:05.582Z,88.53
2022-08-12T03:57:55.590Z,88.25
2022-08-12T04:00:28.568Z,88.26
2022-08-12T04:03:02.025Z,88.33
2022-08-12T04:05:55.671Z,88.93
2022-08-12T04:08:31.781Z,88.84
2022-08-12T04:11:32.362Z,88.92
2022-08-12T04:14:11.779Z,88.91
2022-08-12T04:16:48.930Z,89.25
2022-08-12T04:19:24.745Z,89.59
2022-08-12T04:22:03.557Z,89.29
2022-08-12T04:24:40.904Z,88.88
2022-08-12T04:27:15.508Z,87.92
2022-08-12T04:30:21.409Z,87.86
2022-08-12T04:32:44.730Z,87.18
2022-08-12T04:35:19.399Z,86.78
2022-08-12T04:38:01.021Z,86.95
2022-08-12T04:40:36.549Z,86.95
2022-08-12T04:44:01.293Z,86.20
2022-08-12T04:46:03.621Z,86.38
2022-08-12T04:48:47.767Z,86.17
2022-08-12T04:51:23.226Z,85.82
2022-08-12T04:53:55.792Z,85.83
2022-08-12T04:56:35.469Z,85.08
2022-08-12T04:59:10.566Z,84.23
2022-08-12T05:02:03.019Z,84.82
2022-08-12T05:04:42.616Z,84.17
2022-08-12T05:07:14.585Z,83.86
2022-08-12T05:10:07.337Z,84.36
2022-08-12T05:12:43.114Z,84.18
2022-08-12T05:15:27.455Z,83.69
2022-08-12T05:18:19.542Z,82.75
2022-08-12T05:20:52.495Z,81.78
2022-08-12T05:23:27.819Z,81.41
2022-08-12T05:26:01.146Z,82.07
2022-08-12T05:28:35.600Z,82.30
2022-08-12T05:31:08.391Z,82.04
2022-08-12T05:33:46.214Z,82.41
2022-08-12T05:36:20.067Z,82.85
2022-08-12T05:39:02.011Z,82.04
2022-08-12T05:41:36.346Z,81.94
2022-08-12T05:44:10.091Z,81.90
2022-08-12T05:46:44.569Z,81.23
2022-08-12T05:49:16.861Z,80.98
2022-08-12T05:51:51.953Z,81.64
2022-08-12T05:54:47.306Z,81.87
2022-08-12T05:57:21.018Z,81.64
2022-08-12T05:59:53.826Z,81.66
2022-08-12T06:02:26.537Z,81.53
2022-08-12T06:05:00.493Z,81.34
2022-08-12T06:08:02.343Z,81.24
2022-08-12T06:10:34.329Z,81.10
2022-08-12T06:13:08.088Z,81.16
2022-08-12T06:15:43.037Z,81.03
2022-08-12T06:18:19.289Z,80.50
2022-08-12T06:20:53.913Z,79.99
2022-08-12T06:23:41.891Z,79.81
2022-08-12T06:26:16.831Z,80.05
2022-08-12T06:28:51.788Z,79.91
2022-08-12T06:31:26.581Z,80.16
2022-08-12T06:35:23.436Z,79.56
2022-08-12T06:36:53.784Z,79.53
2022-08-12T06:39:26.269Z,79.72
2022-08-12T06:42:32.357Z,79.42
2022-08-12T06:45:07.315Z,79.05
2022-08-12T06:47:40.632Z,78.48
2022-08-12T06:50:17.000Z,77.87
2022-08-12T06:52:51.022Z,77.18
2022-08-12T06:55:25.542Z,77.28
2022-08-12T06:58:10.369Z,76.84
2022-08-12T07:00:51.107Z,76.56
2022-08-12T07:03:27.939Z,76.57
2022-08-12T07:06:05.856Z,76.25
2022-08-12T07:08:38.737Z,75.79
2022-08-12T07:11:13.471Z,74.94
2022-08-12T07:14:10.135Z,75.00
2022-08-12T07:16:54.072Z,74.74
2022-08-12T07:19:40.405Z,74.78
2022-08-12T07:22:18.043Z,75.15
2022-08-12T07:25:13.696Z,74.63
2022-08-12T07:27:46.824Z,73.76
2022-08-12T07:30:21.166Z,73.62
2022-08-12T07:32:55.634Z,73.01
2022-08-12T07:35:29.514Z,73.16
2022-08-12T07:38:29.894Z,72.43
2022-08-12T07:41:06.999Z,72.69
2022-08-12T07:43:41.641Z,72.19
2022-08-12T07:46:20.599Z,72.34
2022-08-12T07:48:57.638Z,72.15
2022-08-12T07:51:32.773Z,71.40
2022-08-12T07:54:09.889Z,72.03
2022-08-12T07:56:43.767Z,72.02
2022-08-12T07:59:18.848Z,70.96
2022-08-12T08:01:54.205Z,71.02
2022-08-12T08:04:44.243Z,71.92
2022-08-12T08:07:16.997Z,72.45
2022-08-12T08:09:58.683Z,72.90
2022-08-12T08:12:50.129Z,73.06
2022-08-12T08:15:38.629Z,73.44
2022-08-12T08:18:26.209Z,73.24
2022-08-12T08:20:59.609Z,73.25
2022-08-12T08:23:56.354Z,73.09
2022-08-12T08:26:33.435Z,72.82
2022-08-12T08:29:09.986Z,72.65
2022-08-12T08:31:46.844Z,72.88
2022-08-12T08:34:27.562Z,72.67
2022-08-12T08:37:21.282Z,72.65
2022-08-12T08:40:18.361Z,72.98
2022-08-12T08:42:51.490Z,73.18
2022-08-12T08:45:24.001Z,72.54
2022-08-12T08:47:59.712Z,72.01
2022-08-12T08:50:42.805Z,72.39
2022-08-12T08:53:17.426Z,72.48
2022-08-12T08:56:04.676Z,72.03
2022-08-12T08:58:40.058Z,71.56
2022-08-12T09:01:18.265Z,71.14
2022-08-12T09:05:12.607Z,70.51
2022-08-12T09:06:53.957Z,70.31
2022-08-12T09:10:02.033Z,70.37
2022-08-12T09:12:54.872Z,68.72
2022-08-12T09:15:41.668Z,67.38
2022-08-12T09:18:15.137Z,66.26
2022-08-12T09:20:51.039Z,66.32
2022-08-12T09:23:59.788Z,67.20
2022-08-12T09:30:11.380Z,67.37
2022-08-12T09:32:56.465Z,67.93
2022-08-12T09:35:18.692Z,68.37
2022-08-12T09:37:58.777Z,68.80
2022-08-12T09:41:01.487Z,69.26
2022-08-12T09:43:53.952Z,68.90
2022-08-12T09:46:45.813Z,68.60
2022-08-12T09:49:18.919Z,68.37
2022-08-12T09:52:06.804Z,67.95
2022-08-12T09:54:42.955Z,67.68
2022-08-12T09:58:46.234Z,66.00
2022-08-12T10:00:27.479Z,64.55
2022-08-12T10:03:07.881Z,63.44
2022-08-12T10:06:26.956Z,63.81
2022-08-12T10:08:53.511Z,62.37
2022-08-12T10:12:11.548Z,61.15
2022-08-12T10:14:36.528Z,62.04
2022-08-12T10:17:12.549Z,61.37
2022-08-12T10:19:51.912Z,60.41
2022-08-12T10:22:40.361Z,60.88
2022-08-12T10:26:25.743Z,59.97
2022-08-12T10:28:43.025Z,61.26
2022-08-12T10:31:46.992Z,61.55
2022-08-12T10:34:29.205Z,60.58
2022-08-12T10:37:15.628Z,60.53
2022-08-12T10:40:00.819Z,60.90
2022-08-12T10:43:00.656Z,60.16
2022-08-12T10:45:38.005Z,61.18
2022-08-12T10:48:21.295Z,61.12
2022-08-12T10:51:51.619Z,61.28
2022-08-12T10:54:00.361Z,61.29
2022-08-12T10:56:37.091Z,61.33
2022-08-12T10:59:12.704Z,60.16
2022-08-12T11:04:27.053Z,60.93
2022-08-12T11:04:50.064Z,59.55
2022-08-12T11:08:37.847Z,59.14
2022-08-12T11:10:18.957Z,59.50
2022-08-12T11:13:00.685Z,59.80
2022-08-12T11:16:03.317Z,58.88
2022-08-12T11:18:28.693Z,58.15
2022-08-12T11:21:02.182Z,57.43
2022-08-12T11:23:37.942Z,58.27
2022-08-12T11:26:15.015Z,58.50
2022-08-12T11:28:50.493Z,58.34
2022-08-12T11:32:01.638Z,57.44
2022-08-12T11:34:53.265Z,56.82
2022-08-12T11:37:55.855Z,55.37
2022-08-12T11:40:30.390Z,54.67
2022-08-12T11:43:19.111Z,53.76
2022-08-12T11:45:56.699Z,54.39
2022-08-12T11:48:31.328Z,53.62
2022-08-12T11:51:23.461Z,52.94
2022-08-12T11:54:01.413Z,52.43
2022-08-12T11:56:38.550Z,52.58
2022-08-12T12:02:34.902Z,53.93
2022-08-12T12:05:39.518Z,54.77
2022-08-12T12:08:38.950Z,54.85
2022-08-12T12:11:48.729Z,55.43
2022-08-12T12:14:38.292Z,55.98
2022-08-12T12:17:11.345Z,55.99
2022-08-12T12:19:46.577Z,56.22
2022-08-12T12:22:31.033Z,56.15
2022-08-12T12:25:09.042Z,56.09
2022-08-12T12:28:05.735Z,55.90
2022-08-12T12:30:54.925Z,56.12
2022-08-12T12:33:56.746Z,56.42
2022-08-12T12:36:54.803Z,57.37
2022-08-12T12:39:55.438Z,57.91
2022-08-12T12:42:41.794Z,58.83
2022-08-12T12:45:25.908Z,59.19
2022-08-12T12:48:09.256Z,59.27
2022-08-12T12:50:51.403Z,59.52
2022-08-12T12:54:06.598Z,59.57
2022-08-12T12:56:31.536Z,58.87
2022-08-12T12:59:55.057Z,58.03
2022-08-12T13:02:09.329Z,57.41
2022-08-12T13:04:41.284Z,57.19
2022-08-12T13:07:18.103Z,56.59
2022-08-12T13:09:50.987Z,57.14
2022-08-12T13:12:27.147Z,57.27
2022-08-12T13:15:03.424Z,57.13
2022-08-12T13:18:00.736Z,57.73
2022-08-12T13:20:37.446Z,58.43
2022-08-12T13:23:36.436Z,58.33
2022-08-12T13:26:14.307Z,58.34
2022-08-12T13:28:55.980Z,57.15
2022-08-12T13:31:30.681Z,57.62
2022-08-12T13:34:33.905Z,56.77
2022-08-12T13:37:10.157Z,56.30
2022-08-12T13:39:44.496Z,56.51
2022-08-12T13:42:19.493Z,55.03
2022-08-12T13:44:54.587Z,55.47
2022-08-12T13:47:53.080Z,53.85
2022-08-12T13:50:32.665Z,54.29
2022-08-12T13:53:24.222Z,55.19
2022-08-12T13:55:59.522Z,55.51
2022-08-12T13:58:37.712Z,54.71
2022-08-12T14:01:13.133Z,54.80
2022-08-12T14:03:50.587Z,55.07
2022-08-12T14:06:26.043Z,55.02
2022-08-12T14:09:15.248Z,54.47
2022-08-12T14:11:58.733Z,53.09
2022-08-12T14:14:35.715Z,53.00
2022-08-12T14:17:10.872Z,52.36
2022-08-12T14:20:03.144Z,52.20
2022-08-12T14:22:38.212Z,52.81
2022-08-12T14:25:21.623Z,52.82
2022-08-12T14:28:12.585Z,53.05
2022-08-12T14:30:59.785Z,52.98
2022-08-12T14:33:43.961Z,53.19
2022-08-12T14:36:36.920Z,53.28
2022-08-12T14:39:13.034Z,52.64
2022-08-12T14:41:48.680Z,51.83
2022-08-12T14:45:00.041Z,51.95
2022-08-12T14:47:22.031Z,51.97
2022-08-12T14:50:37.368Z,52.14
2022-08-12T14:55:28.342Z,51.87
2022-08-12T14:58:35.517Z,50.81
2022-08-12T15:01:27.938Z,50.61
2022-08-12T15:04:06.067Z,51.37
2022-08-12T15:06:52.025Z,51.19
2022-08-12T15:09:29.200Z,51.89
2022-08-12T15:12:03.319Z,52.21
2022-08-12T15:14:37.876Z,52.86
2022-08-12T15:17:10.680Z,52.90
2022-08-12T15:20:33.456Z,52.81
2022-08-12T15:23:17.507Z,52.21
2022-08-12T15:26:02.861Z,51.88
2022-08-12T15:28:37.379Z,51.79
2022-08-12T15:31:27.412Z,51.48
2022-08-12T15:34:00.143Z,51.81
2022-08-12T15:36:53.917Z,50.96
2022-08-12T15:39:29.826Z,50.80
2022-08-12T15:42:08.020Z,51.06
2022-08-12T15:44:42.864Z,51.01
2022-08-12T15:47:16.401Z,51.17
2022-08-12T15:50:00.677Z,52.25
2022-08-12T15:52:33.057Z,52.18
2022-08-12T15:55:14.206Z,53.04
2022-08-12T15:57:54.337Z,53.85
2022-08-12T16:00:33.403Z,54.47
2022-08-12T16:03:13.608Z,55.31
2022-08-12T16:06:16.891Z,55.50
2022-08-12T16:08:47.224Z,56.10
2022-08-12T16:11:21.963Z,56.55
2022-08-12T16:13:53.949Z,57.19
2022-08-12T16:16:27.826Z,57.68
2022-08-12T16:19:18.849Z,58.02
2022-08-12T16:21:59.055Z,58.13
2022-08-12T16:24:43.748Z,58.27
2022-08-12T16:27:18.806Z,58.49
2022-08-12T16:29:57.709Z,58.05
2022-08-12T16:32:33.104Z,57.91
2022-08-12T16:35:16.159Z,57.52
2022-08-12T16:38:25.553Z,56.73
2022-08-12T16:40:46.327Z,56.65
2022-08-12T16:43:35.359Z,56.92
2022-08-12T16:46:31.720Z,57.47
2022-08-12T16:49:15.450Z,57.61
2022-08-12T16:51:47.605Z,57.75
2022-08-12T16:54:36.167Z,57.97
2022-08-12T16:57:19.075Z,58.37
2022-08-12T17:00:18.562Z,58.93
2022-08-12T17:03:01.910Z,59.83
2022-08-12T17:05:35.406Z,60.47
2022-08-12T17:08:15.503Z,60.88
2022-08-12T17:10:52.675Z,61.54
2022-08-12T17:13:27.634Z,62.08
2022-08-12T17:16:06.283Z,62.56
2022-08-12T17:18:57.654Z,63.07
2022-08-12T17:21:41.609Z,63.37
2022-08-12T17:24:32.635Z,63.54
2022-08-12T17:27:16.510Z,63.52
2022-08-12T17:30:02.097Z,63.77
2022-08-12T17:32:39.781Z,64.00
2022-08-12T17:35:37.101Z,64.09
2022-08-12T17:38:13.773Z,64.49
2022-08-12T17:40:48.817Z,65.09
2022-08-12T17:43:57.627Z,65.30
2022-08-12T17:46:23.880Z,65.67
2022-08-12T17:49:18.879Z,66.24
2022-08-12T17:52:02.235Z,66.34
2022-08-12T17:54:41.150Z,66.68
2022-08-12T17:57:17.323Z,66.88
2022-08-12T18:00:01.350Z,67.44
2022-08-12T18:02:37.298Z,67.68
2022-08-12T18:05:16.195Z,67.87
2022-08-12T18:07:57.971Z,68.63
2022-08-12T18:10:53.070Z,69.03
2022-08-12T18:13:40.782Z,69.66
2022-08-12T18:16:24.398Z,70.06
2022-08-12T18:19:02.628Z,70.24
2022-08-12T18:22:01.211Z,70.53
2022-08-12T18:24:37.068Z,70.67
2022-08-12T18:27:44.445Z,71.51
2022-08-12T18:30:29.974Z,71.68
2022-08-12T18:33:06.329Z,71.75
2022-08-12T18:35:53.366Z,71.97
2022-08-12T18:38:29.977Z,72.30
2022-08-12T18:41:34.151Z,72.43
2022-08-12T18:44:10.144Z,72.86
2022-08-12T18:46:53.702Z,72.98
2022-08-12T18:49:34.611Z,72.94
2022-08-12T18:52:12.185Z,73.28
2022-08-12T18:54:48.830Z,73.46
2022-08-12T18:58:07.700Z,73.33
2022-08-12T19:00:25.264Z,73.79
2022-08-12T19:02:57.599Z,73.93
2022-08-12T19:05:54.301Z,74.21
2022-08-12T19:08:30.256Z,74.50
2022-08-12T19:11:20.650Z,74.47
2022-08-12T19:14:15.057Z,74.43
2022-08-12T19:16:52.745Z,74.57
2022-08-12T19:19:25.342Z,74.77
2022-08-12T19:21:58.160Z,74.91
2022-08-12T19:24:51.293Z,75.01
2022-08-12T19:27:50.781Z,75.44
2022-08-12T19:30:46.675Z,75.65
2022-08-12T19:33:27.856Z,75.86
2022-08-12T19:36:25.153Z,76.24
2022-08-12T19:39:02.025Z,76.46
2022-08-12T19:42:01.051Z,77.08
2022-08-12T19:44:38.084Z,77.16
2022-08-12T19:47:22.091Z,77.21
2022-08-12T19:49:56.454Z,77.34
2022-08-12T19:52:34.020Z,77.81
2022-08-12T19:55:11.529Z,77.97
2022-08-12T19:58:05.156Z,78.14
2022-08-12T20:00:52.606Z,78.38
2022-08-12T20:03:38.717Z,78.49
2022-08-12T20:06:18.275Z,79.00
2022-08-12T20:08:55.946Z,79.09
2022-08-12T20:12:10.182Z,79.40
2022-08-12T20:14:32.960Z,79.44
2022-08-12T20:17:08.610Z,79.48
2022-08-12T20:20:05.594Z,79.62
2022-08-12T20:22:44.943Z,79.76
2022-08-12T20:25:28.458Z,79.99
2022-08-12T20:28:36.659Z,79.89
2022-08-12T20:31:15.531Z,80.37
2022-08-12T20:33:56.729Z,80.09
2022-08-12T20:36:41.645Z,80.34
2022-08-12T20:39:51.916Z,80.17
2022-08-12T20:42:14.066Z,80.17
2022-08-12T20:44:50.685Z,80.10
2022-08-12T20:47:24.978Z,80.32
2022-08-12T20:50:14.765Z,80.50
2022-08-12T20:52:58.067Z,80.52
2022-08-12T20:55:42.440Z,80.49
2022-08-12T20:58:19.799Z,80.53
2022-08-12T21:00:56.609Z,80.52
2022-08-12T21:03:58.308Z,80.53
2022-08-12T21:06:48.840Z,80.41
2022-08-12T21:09:24.156Z,80.56
2022-08-12T21:12:28.135Z,80.63
2022-08-12T21:15:24.365Z,81.21
2022-08-12T21:18:11.298Z,81.12
2022-08-12T21:20:59.094Z,81.46
2022-08-12T21:23:37.142Z,81.59
2022-08-12T21:26:16.477Z,81.86
2022-08-12T21:29:01.478Z,81.99
2022-08-12T21:32:37.029Z,81.86
2022-08-12T21:34:32.737Z,81.93
2022-08-12T21:37:13.129Z,82.24
2022-08-12T21:39:57.708Z,82.28
2022-08-12T21:42:32.659Z,82.06
2022-08-12T21:45:47.336Z,82.18
2022-08-12T21:47:59.882Z,81.97
2022-08-12T21:50:40.512Z,82.12
2022-08-12T21:53:15.592Z,82.13
2022-08-12T21:55:57.969Z,82.00
2022-08-12T21:58:28.991Z,82.28
2022-08-12T22:01:20.107Z,82.25
2022-08-12T22:04:33.506Z,82.23
2022-08-12T22:07:08.680Z,82.56
2022-08-12T22:09:43.873Z,82.55
2022-08-12T22:12:37.653Z,82.51
2022-08-12T22:15:21.395Z,82.33
2022-08-12T22:17:57.718Z,82.43
2022-08-12T22:20:32.771Z,82.40
2022-08-12T22:23:21.870Z,82.46
2022-08-12T22:26:06.368Z,82.61
2022-08-12T22:29:04.430Z,82.82
2022-08-12T22:31:41.810Z,82.66
2022-08-12T22:34:18.041Z,82.31
2022-08-12T22:36:53.140Z,82.06
2022-08-12T22:39:31.619Z,82.53
2022-08-12T22:42:27.383Z,82.28
2022-08-12T22:45:23.127Z,82.03
2022-08-12T22:47:58.496Z,82.02
2022-08-12T22:50:36.021Z,81.66
2022-08-12T22:53:17.279Z,81.88
2022-08-12T22:56:00.113Z,81.94
2022-08-12T22:58:41.500Z,82.07
2022-08-12T23:01:21.527Z,82.28
2022-08-12T23:04:27.533Z,82.46
2022-08-12T23:07:05.561Z,82.86
2022-08-12T23:09:48.060Z,82.76
2022-08-12T23:12:40.781Z,83.12
2022-08-12T23:15:17.719Z,83.09
2022-08-12T23:17:58.115Z,83.05
2022-08-12T23:20:34.640Z,82.74
2022-08-12T23:23:09.485Z,82.76
2022-08-12T23:26:02.421Z,82.73
2022-08-12T23:28:53.271Z,82.64
2022-08-12T23:32:03.180Z,82.78
2022-08-12T23:34:30.828Z,82.91
2022-08-12T23:37:14.193Z,83.02
2022-08-12T23:40:15.836Z,82.98
2022-08-12T23:42:44.073Z,83.01
2022-08-12T23:45:31.782Z,83.33
2022-08-12T23:48:07.290Z,83.37
2022-08-12T23:50:47.879Z,83.30
2022-08-12T23:53:32.386Z,83.55
2022-08-12T23:56:04.875Z,83.55
2022-08-12T23:58:54.245Z,83.86
